EA4DB Madrid ES current weather conditions

sailwx.info

Wind from 090

Air temperature 21.1° C
Dewpoint 7.0° C

Last reported at 2020-Feb-28 14:00 UTC.
Time now 2020-Feb-28 14:37 UTC

Location: N 40°25' W 003°39'.
View on Google Maps.

See reports from other nearby stations

  
Tides and Currents Weather Stations Pressure Air Temp Water Temp Dewpoint Dewpoint Depression Visibility Wind Speed Wind Dir Waves Ship Positions
date/time (UTC)wind fromknots sea level pressurealtimeterstation pressurevisibilityair tempwater tempwave heightnotes
2020-Feb-28 14:00 090 21.1
2020-Feb-28 13:50 090 0 gusting 2 22.2
2020-Feb-28 13:40 270 0 gusting 2 22.2
2020-Feb-28 13:30 225 0 gusting 2 21.1
2020-Feb-28 13:20 270 0 gusting 3 21.1
2020-Feb-28 13:10 270 2 gusting 5 21.1
2020-Feb-28 13:00 225 20.0
2020-Feb-28 12:50 247 1 gusting 3 21.1
2020-Feb-28 12:40 180 20.6
2020-Feb-28 12:30 135 20.0
2020-Feb-28 03:35 135 9.4
2020-Feb-28 03:25 9.4
2020-Feb-28 03:15 9.4
2020-Feb-28 03:05 9.4
2020-Feb-28 02:55 10.6
2020-Feb-28 02:45 315 10.6
2020-Feb-28 02:35 10.6
2020-Feb-28 02:25 10.6
2020-Feb-28 02:15 11.7
2020-Feb-28 02:05 11.7
2020-Feb-28 01:55 11.1
2020-Feb-28 01:45 225 0 gusting 2 11.7
2020-Feb-28 01:35 11.7
2020-Feb-28 01:25 225 0 gusting 2 11.1
2020-Feb-28 01:15 112 0 gusting 4 11.7
2020-Feb-27 15:10 270 2 gusting 7 19.4
2020-Feb-27 15:00 090 5 gusting 9 19.4
2020-Feb-27 14:50 270 4 gusting 10 19.4
2020-Feb-27 14:40 225 6 gusting 13 20.0
2020-Feb-27 14:30 135 2 gusting 10 20.0
2020-Feb-27 14:20 315 4 gusting 10 19.4
2020-Feb-27 14:10 225 5 gusting 10 20.0
2020-Feb-27 14:00 247 4 gusting 7 20.0
2020-Feb-27 13:50 270 2 gusting 5 19.4
2020-Feb-27 13:40 315 7 gusting 13 18.9
2020-Feb-27 13:30 270 4 gusting 7 18.9
2020-Feb-27 13:20 315 2 gusting 5 18.3
2020-Feb-27 13:10 315 6 gusting 12 18.3
2020-Feb-27 13:00 315 2 gusting 6 18.3
2020-Feb-27 12:50 315 4 gusting 7 18.3
2020-Feb-27 12:40 315 6 gusting 9 17.8
2020-Feb-27 02:15 270 0 gusting 1 8.9
2020-Feb-27 02:05 315 2 gusting 5 8.9
2020-Feb-27 01:55 225 1 gusting 4 8.9
2020-Feb-27 01:45 225 3 gusting 5 8.9
2020-Feb-27 01:35 180 1 gusting 3 8.9
2020-Feb-27 01:25 225 1 gusting 3 8.9
2020-Feb-27 01:15 180 9.4
2020-Feb-27 01:05 225 9.4
2020-Feb-27 00:55 225 0 gusting 2 9.4
2020-Feb-27 00:45 315 1 gusting 6 9.4
2020-Feb-27 00:35 022 2 gusting 7 8.9
2020-Feb-27 00:25 270 9.4
2020-Feb-27 00:15 180 0 gusting 2 9.4
2020-Feb-27 00:05 315 4 gusting 6 9.4
2020-Feb-26 23:55 315 0 gusting 3 9.4
2020-Feb-26 14:05 270 1 gusting 5 17.2